Terminal Aerodrome Forecast
Issued by NWS Chicago, IL

Home | Current Version | Previous Version | Text Only | Print | Product List | Glossary Off
Versions: 1 2 3 4 5 6 7 8 9 10 11 12 13 14 15 16 17 18 19 20 21 22 23 24 25 26 27 28 29 30 31 32 33 34 35 36

000
FTUS43 KLOT 031600 AAD
TAFRFD
TAF AMD
KRFD 031625Z 0316/0412 18018G28KT 3SM -FZDZSN BR OVC006
      TEMPO 0316/0318 1 1/2SM -FZDZ BR
     FM031800 22015G25KT 4SM -DZ BR OVC007
     FM032100 25014G23KT P6SM OVC015
     FM040000 29014G21KT P6SM OVC025
     FM040700 32012KT P6SM SCT025 SCT150=

USA.gov is the U.S. government's official web portal to all federal, state and local government web resources and services.